Time;durP1;ratioP1;P1;durP2;ratioP2;P2;SDS_P1;SDS_P2;PMS_P1;PMS_P2;Temp;Humidity;BMP_temperature;BMP_pressure;BME280_temperature;BME280_humidity;BME280_pressure;Samples;Min_cycle;Max_cycle;Signal;HPM_P1;HPM_P2
2021/12/11 00:00:14;;;;;;;;;;;;;;;28.77;20.69;95853.41;171332;28;822;-48
2021/12/11 00:00:23;;;;;;;;;;;;;;;28.80;20.28;95855.69;170731;28;565;-47
2021/12/11 00:00:30;;;;;;;;;;;;;;;28.78;20.44;95855.06;170906;28;1167;-47
2021/12/11 00:00:36;;;;;;;;;;;;;;;28.76;20.28;95849.94;171332;28;790;-48
2021/12/11 00:00:46;;;;;;;;;;;;;;;28.76;20.29;95851.75;171313;28;1166;-47
2021/12/11 00:01:03;;;;;;;;;;;;;;;28.78;20.59;95852.41;170909;28;1494;-47
2021/12/11 00:01:15;;;;;;;;;;;;;;;28.77;20.64;95848.09;171283;28;890;-49
2021/12/11 00:01:24;;;;;;;;;;;;;;;28.72;20.63;95863.72;171364;28;869;-48
2021/12/11 00:01:38;;;;;;;;;;;;;;;28.72;20.32;95855.78;171253;28;1182;-47
2021/12/11 00:01:49;;;;;;;;;;;;;;;28.69;20.47;95859.63;170708;28;878;-47
2021/12/11 00:02:02;;;;;;;;;;;;;;;28.67;20.43;95852.81;171375;28;922;-48
2021/12/11 00:02:29;;;;;;;;;;;;;;;28.67;20.63;95856.31;171219;28;822;-48
2021/12/11 00:02:34;;;;;;;;;;;;;;;28.71;20.61;95856.78;171015;28;4656;-47
2021/12/11 00:02:40;;;;;;;;;;;;;;;28.70;20.31;95860.44;171033;28;1196;-48
2021/12/11 00:02:45;;;;;;;;;;;;;;;28.67;20.53;95861.59;171292;28;838;-47
2021/12/11 00:02:58;;;;;;;;;;;;;;;28.67;20.42;95855.47;171220;28;1139;-47
2021/12/11 00:03:05;;;;;;;;;;;;;;;28.68;20.60;95857.97;170948;28;1249;-47
2021/12/11 00:03:13;;;;;;;;;;;;;;;28.70;20.42;95863.09;171147;28;1027;-48
2021/12/11 00:03:20;;;;;;;;;;;;;;;28.66;20.68;95854.66;171184;28;814;-48
2021/12/11 00:03:27;;;;;;;;;;;;;;;28.68;20.36;95854.50;171216;28;1112;-47
2021/12/11 00:03:34;;;;;;;;;;;;;;;28.64;20.29;95857.50;171223;28;1230;-48
2021/12/11 00:03:40;;;;;;;;;;;;;;;28.63;20.73;95857.69;171209;28;877;-48
2021/12/11 00:03:49;;;;;;;;;;;;;;;28.61;20.78;95862.34;171251;28;822;-47
2021/12/11 00:03:56;;;;;;;;;;;;;;;28.63;20.71;95855.84;170598;29;806;-48
2021/12/11 00:04:01;;;;;;;;;;;;;;;28.70;20.40;95855.13;170886;28;1127;-47
2021/12/11 00:04:08;;;;;;;;;;;;;;;28.68;20.63;95857.97;171090;28;973;-47
2021/12/11 00:04:19;;;;;;;;;;;;;;;28.70;20.61;95861.25;171173;28;1138;-48
2021/12/11 00:04:28;;;;;;;;;;;;;;;28.72;20.40;95853.94;171160;28;1044;-47
2021/12/11 00:04:37;;;;;;;;;;;;;;;28.73;20.29;95858.25;171321;28;1182;-48
2021/12/11 00:04:42;;;;;;;;;;;;;;;28.68;20.33;95862.47;171367;28;759;-49
2021/12/11 00:04:48;;;;;;;;;;;;;;;28.66;20.76;95862.63;171334;28;1184;-48
2021/12/11 00:04:56;;;;;;;;;;;;;;;28.66;20.60;95859.97;171333;28;948;-48
2021/12/11 00:05:01;;;;;;;;;;;;;;;28.65;20.46;95869.75;171313;28;1173;-48
2021/12/11 00:05:07;;;;;;;;;;;;;;;28.69;20.41;95866.75;171227;28;728;-48
2021/12/11 00:05:13;;;;;;;;;;;;;;;28.72;20.46;95863.72;171279;28;1094;-47
2021/12/11 00:05:18;;;;;;;;;;;;;;;28.73;20.40;95865.38;171384;28;746;-47
2021/12/11 00:05:23;;;;;;;;;;;;;;;28.71;20.37;95867.38;171243;28;1208;-48
2021/12/11 00:05:28;;;;;;;;;;;;;;;28.71;20.65;95860.25;171328;28;933;-47
2021/12/11 00:05:34;;;;;;;;;;;;;;;28.72;20.43;95866.38;171304;28;1118;-47
2021/12/11 00:05:40;;;;;;;;;;;;;;;28.70;20.52;95863.09;171355;28;988;-48
2021/12/11 00:05:48;;;;;;;;;;;;;;;28.71;20.30;95865.56;171349;28;1153;-48
2021/12/11 00:06:01;;;;;;;;;;;;;;;28.66;20.73;95862.63;171384;28;860;-48
2021/12/11 00:06:14;;;;;;;;;;;;;;;28.67;20.38;95877.53;170625;28;805;-48
2021/12/11 00:06:22;;;;;;;;;;;;;;;28.65;20.66;95869.75;170339;28;4362;-49
2021/12/11 00:06:28;;;;;;;;;;;;;;;28.68;20.59;95878.38;170670;29;834;-48
2021/12/11 00:06:38;;;;;;;;;;;;;;;28.68;20.68;95862.47;170977;28;1123;-48
2021/12/11 00:06:47;;;;;;;;;;;;;;;28.72;20.64;95869.84;171356;28;1138;-47
2021/12/11 00:06:53;;;;;;;;;;;;;;;28.70;20.43;95871.88;171280;28;801;-48
2021/12/11 00:06:58;;;;;;;;;;;;;;;28.68;20.68;95865.94;171184;28;1166;-48
2021/12/11 00:07:05;;;;;;;;;;;;;;;28.67;20.55;95869.56;171229;28;864;-47
2021/12/11 00:07:11;;;;;;;;;;;;;;;28.68;20.84;95867.75;171132;28;1216;-49
2021/12/11 00:07:17;;;;;;;;;;;;;;;28.68;20.59;95865.94;171471;28;852;-48
2021/12/11 00:07:22;;;;;;;;;;;;;;;28.68;20.73;95873.06;171280;28;1237;-47
2021/12/11 00:07:28;;;;;;;;;;;;;;;28.67;20.35;95871.41;171962;28;979;-48
2021/12/11 00:07:34;;;;;;;;;;;;;;;28.68;20.60;95865.13;171930;28;1218;-48
2021/12/11 00:07:40;;;;;;;;;;;;;;;28.68;20.41;95865.13;172001;28;849;-47
2021/12/11 00:07:45;;;;;;;;;;;;;;;28.69;20.54;95872.06;171936;28;1150;-48
2021/12/11 00:07:50;;;;;;;;;;;;;;;28.68;20.33;95860.63;171962;28;820;-48
2021/12/11 00:07:55;;;;;;;;;;;;;;;28.67;20.59;95866.09;171933;28;1142;-49
2021/12/11 00:08:00;;;;;;;;;;;;;;;28.66;20.40;95870.56;171873;28;904;-47
2021/12/11 00:08:07;;;;;;;;;;;;;;;28.64;20.43;95870.75;171768;28;1157;-47
2021/12/11 00:08:13;;;;;;;;;;;;;;;28.65;20.49;95869.75;171939;28;888;-48
2021/12/11 00:08:21;;;;;;;;;;;;;;;28.68;20.56;95863.28;171890;28;1272;-49
2021/12/11 00:08:27;;;;;;;;;;;;;;;28.68;20.65;95876.53;171979;28;833;-48
2021/12/11 00:08:33;;;;;;;;;;;;;;;28.68;20.72;95859.81;171917;28;1082;-48
2021/12/11 00:08:38;;;;;;;;;;;;;;;28.69;20.65;95870.22;171922;28;956;-48
2021/12/11 00:08:43;;;;;;;;;;;;;;;28.68;20.37;95867.75;171208;28;1209;-47
2021/12/11 00:08:49;;;;;;;;;;;;;;;28.68;20.69;95875.72;171291;28;995;-48
2021/12/11 00:08:56;;;;;;;;;;;;;;;28.67;20.69;95871.41;171264;28;1291;-47
2021/12/11 00:09:07;;;;;;;;;;;;;;;28.67;20.68;95861.59;171229;28;992;-48
2021/12/11 00:09:14;;;;;;;;;;;;;;;28.64;20.35;95873.41;171216;28;829;-47
2021/12/11 00:09:22;;;;;;;;;;;;;;;28.61;20.54;95872.97;171217;28;1148;-47
2021/12/11 00:09:31;;;;;;;;;;;;;;;28.61;20.39;95871.13;170798;28;879;-48
2021/12/11 00:09:41;;;;;;;;;;;;;;;28.63;20.39;95869.13;170624;29;1015;-48
2021/12/11 00:09:51;;;;;;;;;;;;;;;28.67;20.71;95869.56;171308;28;810;-48
2021/12/11 00:10:00;;;;;;;;;;;;;;;28.67;20.66;95874.03;171229;28;1127;-48
2021/12/11 00:10:20;;;;;;;;;;;;;;;28.63;20.76;95876.25;171065;28;1103;-48
2021/12/11 00:10:30;;;;;;;;;;;;;;;28.64;20.54;95873.41;171143;28;4400;-48
2021/12/11 00:10:40;;;;;;;;;;;;;;;28.58;20.76;95870.66;171900;28;943;-48
2021/12/11 00:10:47;;;;;;;;;;;;;;;28.62;20.56;95869.31;171916;28;797;-47
2021/12/11 00:11:01;;;;;;;;;;;;;;;28.64;20.61;95878.72;172248;28;1213;-48
2021/12/11 00:11:12;;;;;;;;;;;;;;;28.61;20.38;95870.31;172472;28;1122;-48
2021/12/11 00:11:37;;;;;;;;;;;;;;;28.62;20.49;95878.09;172600;28;1087;-48
2021/12/11 00:11:43;;;;;;;;;;;;;;;28.69;20.49;95880.03;172155;28;1607;-48
2021/12/11 00:11:50;;;;;;;;;;;;;;;28.66;20.66;95870.56;172625;28;944;-48
2021/12/11 00:12:00;;;;;;;;;;;;;;;28.67;20.53;95874.03;172661;28;699;-49
2021/12/11 00:12:05;;;;;;;;;;;;;;;28.63;20.69;95874.41;172485;28;1067;-50
2021/12/11 00:12:10;;;;;;;;;;;;;;;28.60;20.38;95872.16;172501;28;959;-48
2021/12/11 00:12:20;;;;;;;;;;;;;;;28.61;20.36;95875.63;172630;28;1110;-48
2021/12/11 00:12:26;;;;;;;;;;;;;;;28.61;20.67;95871.13;172592;28;1130;-48
2021/12/11 00:12:33;;;;;;;;;;;;;;;28.62;20.58;95878.09;172709;28;477;-48
2021/12/11 00:12:49;;;;;;;;;;;;;;;28.65;20.53;95879.53;171315;28;1083;-48
2021/12/11 00:12:55;;;;;;;;;;;;;;;28.49;20.78;95858.47;171316;28;825;-48
2021/12/11 00:13:00;;;;;;;;;;;;;;;28.59;20.46;95881.06;171262;28;1112;-48
2021/12/11 00:13:07;;;;;;;;;;;;;;;28.60;20.38;95876.63;171840;28;809;-48
2021/12/11 00:13:21;;;;;;;;;;;;;;;28.58;20.77;95879.44;171874;28;1095;-48
2021/12/11 00:13:27;;;;;;;;;;;;;;;28.59;20.66;95881.06;171878;28;1123;-47
2021/12/11 00:13:36;;;;;;;;;;;;;;;28.59;20.52;95875.78;171938;28;797;-48
2021/12/11 00:13:41;;;;;;;;;;;;;;;28.62;20.44;95877.25;171237;28;948;-48
2021/12/11 00:13:47;;;;;;;;;;;;;;;28.62;20.72;95878.09;171295;28;885;-48
2021/12/11 00:13:55;;;;;;;;;;;;;;;28.62;20.72;95878.09;171272;28;786;-48
2021/12/11 00:14:02;;;;;;;;;;;;;;;28.68;20.52;95878.38;172148;28;1122;-47
2021/12/11 00:14:07;;;;;;;;;;;;;;;28.69;20.61;95877.38;172552;28;932;-48
2021/12/11 00:14:13;;;;;;;;;;;;;;;28.68;20.49;95875.72;171977;28;5049;-49
2021/12/11 00:14:18;;;;;;;;;;;;;;;28.67;20.56;95877.53;172648;28;814;-48
2021/12/11 00:14:24;;;;;;;;;;;;;;;28.69;20.52;95880.84;172632;28;1170;-49
2021/12/11 00:14:29;;;;;;;;;;;;;;;28.70;20.68;95876.34;172700;28;892;-47
2021/12/11 00:14:35;;;;;;;;;;;;;;;28.70;20.64;95874.53;172576;28;1173;-48
2021/12/11 00:14:41;;;;;;;;;;;;;;;28.69;20.53;95880.84;172626;28;1061;-47
2021/12/11 00:14:49;;;;;;;;;;;;;;;28.67;20.36;95877.53;172618;28;1177;-48
2021/12/11 00:15:00;;;;;;;;;;;;;;;28.67;20.52;95871.41;171978;28;854;-48
2021/12/11 00:15:10;;;;;;;;;;;;;;;28.68;20.58;95873.91;171774;28;861;-47
2021/12/11 00:15:19;;;;;;;;;;;;;;;28.64;20.66;95877.91;171974;28;1023;-48
2021/12/11 00:15:26;;;;;;;;;;;;;;;28.62;20.45;95871.97;172367;28;1206;-48
2021/12/11 00:15:32;;;;;;;;;;;;;;;28.62;20.56;95874.59;172655;28;829;-48
2021/12/11 00:15:39;;;;;;;;;;;;;;;28.64;20.34;95878.72;172579;28;1182;-49
2021/12/11 00:15:45;;;;;;;;;;;;;;;28.57;20.30;95876.97;172646;28;801;-48
2021/12/11 00:15:50;;;;;;;;;;;;;;;28.60;20.54;95874.78;172473;28;1535;-48
2021/12/11 00:15:55;;;;;;;;;;;;;;;28.59;20.75;95878.44;172191;28;1732;-47
2021/12/11 00:16:00;;;;;;;;;;;;;;;28.60;20.63;95873.97;171585;28;1186;-47
2021/12/11 00:16:06;;;;;;;;;;;;;;;28.57;20.64;95872.50;170934;28;1452;-48
2021/12/11 00:16:12;;;;;;;;;;;;;;;28.57;20.57;95877.78;170864;28;1003;-49
2021/12/11 00:16:18;;;;;;;;;;;;;;;28.61;20.69;95878.28;171234;28;925;-49
2021/12/11 00:16:23;;;;;;;;;;;;;;;28.64;20.53;95876.06;171299;28;1174;-49
2021/12/11 00:16:29;;;;;;;;;;;;;;;28.65;20.55;95880.38;171409;28;1052;-48
2021/12/11 00:16:35;;;;;;;;;;;;;;;28.69;20.43;95874.72;171222;28;1914;-48
2021/12/11 00:16:40;;;;;;;;;;;;;;;28.67;20.30;95879.34;171375;28;882;-48
2021/12/11 00:16:45;;;;;;;;;;;;;;;28.65;20.46;95883.00;171362;28;1162;-47
2021/12/11 00:16:50;;;;;;;;;;;;;;;28.64;20.44;95878.72;171320;28;890;-47
2021/12/11 00:16:56;;;;;;;;;;;;;;;28.67;20.68;95879.34;171335;28;1196;-48
2021/12/11 00:17:01;;;;;;;;;;;;;;;28.66;20.71;95878.53;171330;28;901;-48
2021/12/11 00:17:06;;;;;;;;;;;;;;;28.66;20.71;95875.88;171353;28;956;-47
2021/12/11 00:17:11;;;;;;;;;;;;;;;28.69;20.59;95877.38;171210;28;1213;-48
2021/12/11 00:17:21;;;;;;;;;;;;;;;28.68;20.73;95881.03;171249;28;727;-48
2021/12/11 00:17:27;;;;;;;;;;;;;;;28.71;20.56;95884.13;170656;28;876;-47
2021/12/11 00:17:33;;;;;;;;;;;;;;;28.71;20.46;95888.63;170905;28;1163;-47
2021/12/11 00:17:38;;;;;;;;;;;;;;;28.69;20.65;95880.03;171401;28;814;-48
2021/12/11 00:17:44;;;;;;;;;;;;;;;28.70;20.65;95879.00;171290;28;1167;-47
2021/12/11 00:17:49;;;;;;;;;;;;;;;28.71;20.56;95880.66;171351;28;1003;-48
2021/12/11 00:18:01;;;;;;;;;;;;;;;28.72;20.61;95885.78;171294;28;1202;-48
2021/12/11 00:18:08;;;;;;;;;;;;;;;28.70;20.36;95881.66;171231;28;1315;-48
2021/12/11 00:18:17;;;;;;;;;;;;;;;28.69;20.23;95880.84;170807;28;4276;-48
2021/12/11 00:18:23;;;;;;;;;;;;;;;28.68;20.62;95878.38;171210;28;1193;-48
2021/12/11 00:18:28;;;;;;;;;;;;;;;28.67;20.46;95876.69;171294;28;849;-48
2021/12/11 00:18:33;;;;;;;;;;;;;;;28.68;20.49;95879.19;171344;28;1170;-48
2021/12/11 00:18:39;;;;;;;;;;;;;;;28.69;20.61;95880.03;171357;28;947;-48
2021/12/11 00:18:44;;;;;;;;;;;;;;;28.67;20.52;95882.00;171313;28;1138;-49
2021/12/11 00:18:50;;;;;;;;;;;;;;;28.65;20.74;95877.72;171368;28;889;-48
2021/12/11 00:19:00;;;;;;;;;;;;;;;28.67;20.42;95882.00;170832;28;1533;-47
2021/12/11 00:19:16;;;;;;;;;;;;;;;28.65;20.47;95883.00;171266;28;1126;-48
2021/12/11 00:19:23;;;;;;;;;;;;;;;28.65;20.57;95879.53;170717;28;842;-48
2021/12/11 00:19:29;;;;;;;;;;;;;;;28.65;20.29;95884.84;170592;28;1191;-47
2021/12/11 00:19:35;;;;;;;;;;;;;;;28.61;20.53;95881.75;171275;28;821;-46
2021/12/11 00:19:40;;;;;;;;;;;;;;;28.63;20.41;95892.16;171301;28;1182;-47
2021/12/11 00:19:45;;;;;;;;;;;;;;;28.61;20.38;95889.69;171388;28;938;-48
2021/12/11 00:19:51;;;;;;;;;;;;;;;28.61;20.67;95887.06;171328;28;894;-48
2021/12/11 00:19:56;;;;;;;;;;;;;;;28.62;20.68;95886.03;171241;28;1055;-48
2021/12/11 00:20:02;;;;;;;;;;;;;;;28.62;20.70;95879.91;171356;28;958;-48
2021/12/11 00:20:13;;;;;;;;;;;;;;;28.62;20.60;95882.56;171315;28;1261;-48
2021/12/11 00:20:19;;;;;;;;;;;;;;;28.61;20.69;95883.56;171164;28;1224;-48
2021/12/11 00:20:25;;;;;;;;;;;;;;;28.64;20.46;95884.03;171378;28;1056;-48
2021/12/11 00:20:31;;;;;;;;;;;;;;;28.63;20.43;95882.38;171319;28;1186;-48
2021/12/11 00:20:42;;;;;;;;;;;;;;;28.63;20.42;95882.38;171392;28;802;-47
2021/12/11 00:20:52;;;;;;;;;;;;;;;28.64;20.33;95880.56;170692;28;805;-48
2021/12/11 00:21:01;;;;;;;;;;;;;;;28.62;20.39;95886.03;170696;29;1068;-47
2021/12/11 00:21:10;;;;;;;;;;;;;;;28.66;20.40;95889.16;171188;28;1154;-49
2021/12/11 00:21:16;;;;;;;;;;;;;;;28.64;20.35;95884.03;171197;28;1110;-48
2021/12/11 00:21:22;;;;;;;;;;;;;;;28.60;20.42;95881.94;171294;28;794;-48
2021/12/11 00:21:27;;;;;;;;;;;;;;;28.61;20.36;95880.91;171346;28;1082;-48
2021/12/11 00:21:32;;;;;;;;;;;;;;;28.63;20.69;95882.38;171318;28;909;-48
2021/12/11 00:21:39;;;;;;;;;;;;;;;28.63;20.48;95885.03;171376;28;806;-48
2021/12/11 00:21:45;;;;;;;;;;;;;;;28.64;20.35;95888.50;170679;28;818;-48
2021/12/11 00:21:50;;;;;;;;;;;;;;;28.63;20.62;95885.03;170642;28;1163;-48
2021/12/11 00:22:02;;;;;;;;;;;;;;;28.63;20.41;95882.38;171295;28;963;-47
2021/12/11 00:22:08;;;;;;;;;;;;;;;28.62;20.42;95882.56;171316;28;853;-48
2021/12/11 00:22:15;;;;;;;;;;;;;;;28.61;20.44;95889.69;170839;28;4630;-48
2021/12/11 00:22:21;;;;;;;;;;;;;;;28.60;20.43;95885.41;171966;28;538;-48
2021/12/11 00:22:27;;;;;;;;;;;;;;;28.60;20.39;95882.75;171884;28;1079;-48
2021/12/11 00:22:33;;;;;;;;;;;;;;;28.62;20.48;95887.88;171945;28;933;-48
2021/12/11 00:22:40;;;;;;;;;;;;;;;28.64;20.55;95883.19;171943;28;1174;-48
2021/12/11 00:22:45;;;;;;;;;;;;;;;28.64;20.53;95881.38;171961;28;1016;-48
2021/12/11 00:22:50;;;;;;;;;;;;;;;28.63;20.48;95887.69;171851;28;1154;-48
2021/12/11 00:22:55;;;;;;;;;;;;;;;28.63;20.44;95886.88;171970;28;762;-48
2021/12/11 00:23:01;;;;;;;;;;;;;;;28.63;20.60;95887.69;170790;28;1559;-48
2021/12/11 00:23:06;;;;;;;;;;;;;;;28.63;20.60;95886.88;171192;28;1082;-49
2021/12/11 00:23:11;;;;;;;;;;;;;;;28.64;20.66;95886.69;171826;28;1039;-47
2021/12/11 00:23:17;;;;;;;;;;;;;;;28.63;20.44;95887.69;171158;28;1135;-47
2021/12/11 00:23:25;;;;;;;;;;;;;;;28.63;20.71;95882.38;171236;28;900;-48
2021/12/11 00:23:41;;;;;;;;;;;;;;;28.63;20.38;95886.88;170528;28;1788;-48
2021/12/11 00:23:51;;;;;;;;;;;;;;;28.63;20.49;95887.69;171307;28;948;-47
2021/12/11 00:23:58;;;;;;;;;;;;;;;28.64;20.55;95883.19;170606;29;880;-48
2021/12/11 00:24:05;;;;;;;;;;;;;;;28.62;20.44;95887.88;171016;28;1143;-47
2021/12/11 00:24:26;;;;;;;;;;;;;;;28.62;20.68;95890.53;170503;29;802;-47
2021/12/11 00:24:33;;;;;;;;;;;;;;;28.63;20.42;95887.69;169925;29;829;-48
2021/12/11 00:24:38;;;;;;;;;;;;;;;28.61;20.51;95886.22;170330;29;1136;-49
2021/12/11 00:24:43;;;;;;;;;;;;;;;28.58;20.67;95884.75;170645;29;834;-48
2021/12/11 00:24:48;;;;;;;;;;;;;;;28.58;20.40;95890.03;170587;29;1155;-48
2021/12/11 00:25:00;;;;;;;;;;;;;;;28.60;20.49;95887.25;170616;29;857;-48
2021/12/11 00:25:06;;;;;;;;;;;;;;;28.64;20.53;95896.47;170595;29;1405;-49
2021/12/11 00:25:11;;;;;;;;;;;;;;;28.64;20.31;95891.16;169858;29;1152;-47
2021/12/11 00:25:17;;;;;;;;;;;;;;;28.64;20.29;95893.81;169856;29;795;-47
2021/12/11 00:25:22;;;;;;;;;;;;;;;28.63;20.30;95895.63;169847;29;1120;-47
2021/12/11 00:25:27;;;;;;;;;;;;;;;28.61;20.62;95886.22;169999;29;956;-47
2021/12/11 00:25:39;;;;;;;;;;;;;;;28.61;20.66;95888.88;169921;29;810;-48
2021/12/11 00:25:44;;;;;;;;;;;;;;;28.56;20.57;95886.75;169328;29;803;-49
2021/12/11 00:25:50;;;;;;;;;;;;;;;28.58;20.48;95894.53;169900;29;1255;-48
2021/12/11 00:25:55;;;;;;;;;;;;;;;28.61;20.61;95892.34;169951;29;799;-49
2021/12/11 00:26:00;;;;;;;;;;;;;;;28.62;20.38;95894.00;169936;29;1175;-48
2021/12/11 00:26:06;;;;;;;;;;;;;;;28.62;20.66;95888.69;171251;28;870;-48
2021/12/11 00:26:11;;;;;;;;;;;;;;;28.64;20.72;95891.97;171441;28;1131;-48
2021/12/11 00:26:22;;;;;;;;;;;;;;;28.65;20.60;95896.28;171549;28;4316;-48
2021/12/11 00:26:31;;;;;;;;;;;;;;;28.66;20.53;95889.16;171981;28;797;-48
2021/12/11 00:26:37;;;;;;;;;;;;;;;28.68;20.37;95889.00;171697;28;1452;-48
2021/12/11 00:26:43;;;;;;;;;;;;;;;28.69;20.50;95895.94;171837;28;877;-48
2021/12/11 00:26:52;;;;;;;;;;;;;;;28.69;20.37;95891.44;171884;28;1155;-48
2021/12/11 00:27:18;;;;;;;;;;;;;;;28.71;20.27;95893.91;171975;28;1178;-47
2021/12/11 00:27:24;;;;;;;;;;;;;;;28.63;20.37;95894.81;171893;28;1577;-48
2021/12/11 00:27:29;;;;;;;;;;;;;;;28.63;20.66;95893.00;172482;28;869;-47
2021/12/11 00:27:35;;;;;;;;;;;;;;;28.64;20.31;95891.16;172491;28;1246;-48
2021/12/11 00:27:41;;;;;;;;;;;;;;;28.64;20.37;95894.63;172671;28;825;-48
2021/12/11 00:27:48;;;;;;;;;;;;;;;28.65;20.37;95888.31;172566;28;1178;-48
2021/12/11 00:27:59;;;;;;;;;;;;;;;28.65;20.53;95895.47;172584;28;1004;-48
2021/12/11 00:28:05;;;;;;;;;;;;;;;28.64;20.35;95894.63;172259;28;793;-47
2021/12/11 00:28:10;;;;;;;;;;;;;;;28.65;20.50;95898.09;171804;28;1218;-48
2021/12/11 00:28:15;;;;;;;;;;;;;;;28.65;20.42;95888.31;171909;28;822;-48
2021/12/11 00:28:20;;;;;;;;;;;;;;;28.67;20.40;95893.44;171790;28;1126;-48
2021/12/11 00:28:25;;;;;;;;;;;;;;;28.64;20.66;95891.97;171952;28;913;-47
2021/12/11 00:28:31;;;;;;;;;;;;;;;28.66;20.56;95897.09;171957;28;1083;-48
2021/12/11 00:28:45;;;;;;;;;;;;;;;28.65;20.69;95896.28;171951;28;794;-47
2021/12/11 00:28:50;;;;;;;;;;;;;;;28.62;20.44;95891.34;172008;28;806;-47
2021/12/11 00:28:55;;;;;;;;;;;;;;;28.61;20.51;95892.34;171899;28;1158;-47
2021/12/11 00:29:01;;;;;;;;;;;;;;;28.61;20.42;95895.00;171982;28;829;-48
2021/12/11 00:29:06;;;;;;;;;;;;;;;28.61;20.63;95889.69;171874;28;1118;-49
2021/12/11 00:29:12;;;;;;;;;;;;;;;28.60;20.58;95892.53;171877;28;959;-48
2021/12/11 00:29:24;;;;;;;;;;;;;;;28.61;20.60;95899.50;171777;28;1200;-49
2021/12/11 00:29:29;;;;;;;;;;;;;;;28.62;20.39;95894.00;171082;28;1162;-48
2021/12/11 00:29:34;;;;;;;;;;;;;;;28.63;20.62;95892.16;171206;28;874;-47
2021/12/11 00:29:39;;;;;;;;;;;;;;;28.64;20.62;95896.47;171169;28;928;-47
2021/12/11 00:29:44;;;;;;;;;;;;;;;28.64;20.38;95897.28;171161;28;1178;-48
2021/12/11 00:29:50;;;;;;;;;;;;;;;28.63;20.47;95900.13;171227;28;909;-48
2021/12/11 00:29:55;;;;;;;;;;;;;;;28.64;20.67;95894.63;171207;28;1039;-47
2021/12/11 00:30:00;;;;;;;;;;;;;;;28.63;20.35;95902.78;171294;28;889;-48
2021/12/11 00:30:06;;;;;;;;;;;;;;;28.60;20.41;95898.66;171222;28;1158;-48
2021/12/11 00:30:18;;;;;;;;;;;;;;;28.62;20.58;95901.13;171222;28;852;-47
2021/12/11 00:30:25;;;;;;;;;;;;;;;28.62;20.26;95899.31;170289;29;4401;-48
2021/12/11 00:30:32;;;;;;;;;;;;;;;28.65;20.66;95895.47;170916;28;1188;-48
2021/12/11 00:30:38;;;;;;;;;;;;;;;28.64;20.34;95889.31;171983;28;897;-47
2021/12/11 00:30:45;;;;;;;;;;;;;;;28.58;20.43;95898.00;171859;28;1178;-48
2021/12/11 00:30:50;;;;;;;;;;;;;;;28.57;20.50;95895.53;171810;28;1501;-48
2021/12/11 00:30:56;;;;;;;;;;;;;;;28.59;20.70;95901.47;171742;28;1171;-48
2021/12/11 00:31:01;;;;;;;;;;;;;;;28.58;20.68;95900.66;171869;28;852;-49
2021/12/11 00:31:06;;;;;;;;;;;;;;;28.60;20.45;95903.97;171896;28;1147;-48
2021/12/11 00:31:11;;;;;;;;;;;;;;;28.59;20.43;95897.00;171837;28;806;-48
2021/12/11 00:31:16;;;;;;;;;;;;;;;28.58;20.50;95898.00;171818;28;1091;-48
2021/12/11 00:31:22;;;;;;;;;;;;;;;28.60;20.43;95897.84;171906;28;1067;-48
2021/12/11 00:31:27;;;;;;;;;;;;;;;28.62;20.67;95903.78;171884;28;1205;-47
2021/12/11 00:31:32;;;;;;;;;;;;;;;28.62;20.21;95901.97;171886;28;1044;-48
2021/12/11 00:31:50;;;;;;;;;;;;;;;28.62;20.54;95901.97;171906;28;1077;-47
2021/12/11 00:32:20;;;;;;;;;;;;;;;28.63;20.65;95900.94;171988;28;817;-48
2021/12/11 00:32:26;;;;;;;;;;;;;;;28.64;20.32;95896.47;171960;28;849;-47
2021/12/11 00:32:32;;;;;;;;;;;;;;;28.64;20.66;95899.94;171340;28;866;-48
2021/12/11 00:32:37;;;;;;;;;;;;;;;28.64;20.57;95897.28;170783;28;917;-48
2021/12/11 00:32:42;;;;;;;;;;;;;;;28.64;20.39;95904.41;171216;28;1286;-47
2021/12/11 00:32:47;;;;;;;;;;;;;;;28.67;20.30;95903.22;172230;28;559;-48
2021/12/11 00:33:03;;;;;;;;;;;;;;;28.63;20.30;95908.09;172513;28;1162;-48
2021/12/11 00:33:13;;;;;;;;;;;;;;;28.60;20.42;95906.63;172640;28;690;-48
2021/12/11 00:33:22;;;;;;;;;;;;;;;28.61;20.64;95910.91;171876;28;1068;-48
2021/12/11 00:33:32;;;;;;;;;;;;;;;28.61;20.48;95908.28;172288;28;1398;-47
2021/12/11 00:33:37;;;;;;;;;;;;;;;28.61;20.52;95904.78;172562;28;1099;-47
2021/12/11 00:33:43;;;;;;;;;;;;;;;28.57;20.74;95901.66;172630;28;968;-47
2021/12/11 00:33:48;;;;;;;;;;;;;;;28.58;20.69;95905.97;172629;28;1166;-49
2021/12/11 00:33:53;;;;;;;;;;;;;;;28.60;20.73;95909.28;172590;28;1020;-49
2021/12/11 00:33:58;;;;;;;;;;;;;;;28.60;20.73;95905.81;172012;28;960;-48
2021/12/11 00:34:04;;;;;;;;;;;;;;;28.59;20.69;95909.44;171860;28;1158;-48
2021/12/11 00:34:09;;;;;;;;;;;;;;;28.58;20.56;95900.66;171496;28;4310;-47
2021/12/11 00:34:15;;;;;;;;;;;;;;;28.60;20.46;95900.50;171756;28;1222;-47
2021/12/11 00:34:20;;;;;;;;;;;;;;;28.60;20.76;95903.97;171929;28;616;-47
2021/12/11 00:34:25;;;;;;;;;;;;;;;28.61;20.64;95910.09;171831;28;1190;-48
2021/12/11 00:34:31;;;;;;;;;;;;;;;28.61;20.41;95907.44;171970;28;888;-48
2021/12/11 00:34:37;;;;;;;;;;;;;;;28.63;20.42;95905.44;171927;28;1343;-49
2021/12/11 00:34:43;;;;;;;;;;;;;;;28.66;20.46;95910.38;172010;28;849;-48
2021/12/11 00:34:48;;;;;;;;;;;;;;;28.67;20.68;95901.41;171235;28;1205;-48
2021/12/11 00:34:54;;;;;;;;;;;;;;;28.65;20.66;95901.59;171242;28;893;-47
2021/12/11 00:35:04;;;;;;;;;;;;;;;28.64;20.41;95907.91;171166;28;1235;-48
2021/12/11 00:35:11;;;;;;;;;;;;;;;28.65;20.41;95906.88;171294;28;822;-48
2021/12/11 00:35:22;;;;;;;;;;;;;;;28.66;20.29;95905.06;171178;28;865;-48
2021/12/11 00:35:27;;;;;;;;;;;;;;;28.66;20.62;95907.72;170555;29;853;-47
2021/12/11 00:35:34;;;;;;;;;;;;;;;28.67;20.63;95903.22;170630;29;818;-48
2021/12/11 00:35:40;;;;;;;;;;;;;;;28.67;20.49;95903.22;170657;29;857;-48
2021/12/11 00:35:45;;;;;;;;;;;;;;;28.67;20.46;95904.06;170630;29;766;-48
2021/12/11 00:35:50;;;;;;;;;;;;;;;28.65;20.63;95906.88;171229;28;1202;-48
2021/12/11 00:35:56;;;;;;;;;;;;;;;28.68;20.63;95911.03;171448;28;1059;-48
2021/12/11 00:36:08;;;;;;;;;;;;;;;28.67;20.49;95909.34;171886;28;1167;-48
2021/12/11 00:36:15;;;;;;;;;;;;;;;28.66;20.71;95910.38;171718;28;1071;-48
2021/12/11 00:36:21;;;;;;;;;;;;;;;28.66;20.59;95905.06;171973;28;904;-48
2021/12/11 00:36:31;;;;;;;;;;;;;;;28.67;20.36;95909.34;171375;28;838;-48
2021/12/11 00:36:37;;;;;;;;;;;;;;;28.70;20.64;95909.00;171767;28;1179;-48
2021/12/11 00:36:48;;;;;;;;;;;;;;;28.72;20.36;95911.47;172008;28;956;-48
2021/12/11 00:36:55;;;;;;;;;;;;;;;28.71;20.54;95907.19;171092;28;1076;-48
2021/12/11 00:37:01;;;;;;;;;;;;;;;28.65;20.55;95900.75;171236;28;1181;-48
2021/12/11 00:37:07;;;;;;;;;;;;;;;28.62;20.60;95901.97;171235;28;1419;-48
2021/12/11 00:37:13;;;;;;;;;;;;;;;28.64;20.51;95905.25;171738;28;1059;-46
2021/12/11 00:37:19;;;;;;;;;;;;;;;28.68;20.49;95905.72;171202;28;880;-48
2021/12/11 00:37:24;;;;;;;;;;;;;;;28.69;20.47;95903.91;171271;28;904;-48
2021/12/11 00:37:29;;;;;;;;;;;;;;;28.69;20.50;95906.53;171978;28;818;-48
2021/12/11 00:37:35;;;;;;;;;;;;;;;28.68;20.44;95908.38;171220;28;1131;-48
2021/12/11 00:37:40;;;;;;;;;;;;;;;28.65;20.42;95903.41;171317;28;735;-47
2021/12/11 00:37:45;;;;;;;;;;;;;;;28.63;20.53;95906.25;171218;28;1127;-48
2021/12/11 00:37:50;;;;;;;;;;;;;;;28.62;20.33;95903.78;170553;29;818;-48
2021/12/11 00:38:00;;;;;;;;;;;;;;;28.62;20.64;95911.75;170570;29;1116;-48
2021/12/11 00:38:10;;;;;;;;;;;;;;;28.62;20.47;95907.25;169964;29;851;-47
2021/12/11 00:38:17;;;;;;;;;;;;;;;28.63;20.39;95911.56;169513;29;4301;-49
2021/12/11 00:38:23;;;;;;;;;;;;;;;28.64;20.39;95909.72;170352;29;1238;-47
2021/12/11 00:38:33;;;;;;;;;;;;;;;28.61;20.62;95907.44;170303;29;1607;-47
2021/12/11 00:38:39;;;;;;;;;;;;;;;28.58;20.75;95907.78;170667;29;878;-48
2021/12/11 00:38:47;;;;;;;;;;;;;;;28.60;20.64;95914.59;170588;29;1176;-49
2021/12/11 00:38:53;;;;;;;;;;;;;;;28.58;20.45;95907.78;170580;29;969;-49
2021/12/11 00:39:08;;;;;;;;;;;;;;;28.59;20.58;95906.78;170603;29;1259;-48
2021/12/11 00:39:14;;;;;;;;;;;;;;;28.63;20.36;95914.22;170577;29;900;-47
2021/12/11 00:39:20;;;;;;;;;;;;;;;28.66;20.61;95913.00;170448;29;1151;-47
2021/12/11 00:39:25;;;;;;;;;;;;;;;28.63;20.49;95908.91;170626;29;960;-47
2021/12/11 00:39:31;;;;;;;;;;;;;;;28.62;20.76;95915.22;170190;29;1164;-48
2021/12/11 00:39:43;;;;;;;;;;;;;;;28.59;20.76;95915.56;171213;28;794;-49